Time;durP1;ratioP1;P1;durP2;ratioP2;P2;SDS_P1;SDS_P2;PMS_P1;PMS_P2;Temp;Humidity;BMP_temperature;BMP_pressure;BME280_temperature;BME280_humidity;BME280_pressure;Samples;Min_cycle;Max_cycle;Signal;HPM_P1;HPM_P2
2021/07/27 00:01:34;;;;;;;8.80;5.80;;;17.40;91.80;;;16.71;81.69;97775.13;4973773;29;20452;-85
2021/07/27 00:04:02;;;;;;;6.90;6.20;;;17.40;92.40;;;16.65;81.74;97766.09;4977143;28;20458;-82
2021/07/27 00:06:29;;;;;;;8.97;6.47;;;17.40;92.40;;;16.62;82.11;97777.53;4958495;29;20462;-76
2021/07/27 00:08:58;;;;;;;7.20;5.50;;;17.40;92.40;;;16.63;81.88;97781.88;4968915;28;20473;-76
2021/07/27 00:11:26;;;;;;;11.17;7.67;;;17.40;92.80;;;16.53;82.24;97785.34;4975170;28;20549;-87
2021/07/27 00:13:53;;;;;;;7.50;6.80;;;17.30;92.80;;;16.42;82.40;97776.25;4969618;28;20473;-86
2021/07/27 00:16:20;;;;;;;6.90;6.30;;;17.30;93.20;;;16.42;82.90;97789.88;4966453;28;20458;-87
2021/07/27 00:18:47;;;;;;;8.80;6.90;;;17.20;93.50;;;16.27;83.78;97770.66;4973249;28;20518;-76
2021/07/27 00:21:14;;;;;;;8.43;7.63;;;17.10;94.50;;;16.31;83.91;97792.78;4973675;28;20462;-77
2021/07/27 00:23:41;;;;;;;7.83;7.13;;;17.10;94.80;;;16.23;84.10;97788.63;4980327;28;20466;-75
2021/07/27 00:26:13;;;;;;;8.83;7.77;;;17.00;95.00;;;16.25;84.26;97795.47;4972087;28;20529;-87
2021/07/27 00:28:42;;;;;;;6.80;6.30;;;17.00;95.60;;;16.28;84.38;97788.66;4978104;28;20472;-75
2021/07/27 00:31:16;;;;;;;7.30;6.60;;;17.00;96.20;;;16.32;84.01;97789.81;4976435;28;20513;-87
2021/07/27 00:33:43;;;;;;;7.27;6.70;;;17.00;95.90;;;16.29;84.52;97785.69;4976741;28;20449;-86
2021/07/27 00:36:10;;;;;;;10.43;7.47;;;17.00;95.80;;;16.25;84.29;97789.19;4981839;28;20466;-76
2021/07/27 00:38:37;;;;;;;7.60;6.90;;;17.00;95.80;;;16.17;84.93;97797.84;4980220;28;20438;-75
2021/07/27 00:41:05;;;;;;;8.33;6.33;;;16.90;95.90;;;16.13;84.99;97792.88;4980772;28;20513;-75
2021/07/27 00:43:32;;;;;;;8.77;7.83;;;16.90;96.50;;;16.13;84.61;97787.44;4976560;28;20494;-80
2021/07/27 00:46:00;;;;;;;7.30;6.70;;;16.90;97.00;;;16.14;85.48;97794.53;4977987;28;20533;-75
2021/07/27 00:48:27;;;;;;;11.90;7.80;;;16.80;97.10;;;16.06;85.18;97797.72;4980140;28;20493;-75
2021/07/27 00:50:54;;;;;;;12.03;7.07;;;16.80;97.00;;;16.03;85.36;97798.25;4980502;28;20454;-75
2021/07/27 00:53:22;;;;;;;8.20;7.40;;;16.80;97.30;;;16.00;85.71;97794.13;4975647;28;20534;-79
2021/07/27 00:55:51;;;;;;;7.50;6.90;;;16.70;97.80;;;16.04;85.24;97790.88;4969102;28;20460;-82
2021/07/27 00:58:18;;;;;;;8.73;7.30;;;16.80;98.20;;;16.05;85.57;97796.09;4970387;28;20446;-82
2021/07/27 01:00:45;;;;;;;7.33;6.60;;;16.80;97.80;;;16.01;85.46;97797.69;4969867;28;20474;-76
2021/07/27 01:03:15;;;;;;;7.47;6.77;;;16.80;97.60;;;16.09;84.94;97790.94;4979911;28;20466;-75
2021/07/27 01:05:42;;;;;;;6.63;6.13;;;16.80;97.60;;;16.09;84.98;97791.75;4965390;28;20525;-82
2021/07/27 01:08:09;;;;;;;7.93;6.50;;;16.80;97.60;;;16.11;84.95;97786.06;4970862;28;20495;-82
2021/07/27 01:10:36;;;;;;;8.33;6.83;;;16.80;97.30;;;16.25;84.01;97800.91;4961546;28;20542;-76
2021/07/27 01:13:05;;;;;;;7.43;6.60;;;16.90;96.70;;;16.09;84.58;97802.66;4960551;29;20546;-75
2021/07/27 01:15:32;;;;;;;8.10;7.40;;;16.90;96.30;;;15.97;85.07;97793.81;4958493;29;20443;-82
2021/07/27 01:18:03;;;;;;;14.53;7.03;;;16.80;96.30;;;16.02;84.64;97791.16;4977286;28;20513;-77
2021/07/27 01:20:52;;;;;;;6.40;5.80;;;16.70;96.90;;;16.01;84.92;97794.97;4980156;28;20453;-76
2021/07/27 01:39:56;;;;;;;8.17;7.40;;;16.50;98.30;;;15.56;85.95;97777.78;4970836;28;20457;-83
2021/07/27 01:42:22;;;;;;;7.97;7.27;;;16.40;98.80;;;15.46;86.76;97789.38;4974597;28;20446;-74
2021/07/27 01:44:49;;;;;;;9.30;7.00;;;16.30;99.20;;;15.68;86.15;97788.53;4976177;28;20450;-82
2021/07/27 01:47:17;;;;;;;6.70;6.20;;;16.40;99.90;;;15.65;85.64;97778.16;4971747;28;20549;-83
2021/07/27 01:49:45;;;;;;;7.70;6.90;;;16.40;99.10;;;15.68;85.95;97785.81;4973567;28;20477;-82
2021/07/27 01:52:14;;;;;;;8.97;7.13;;;16.50;98.50;;;15.70;85.47;97772.81;4967615;28;20442;-83
2021/07/27 01:54:57;;;;;;;8.43;7.33;;;16.40;98.70;;;15.52;85.42;97780.19;4970554;28;20434;-82
2021/07/27 01:57:28;;;;;;;7.73;7.07;;;16.40;97.90;;;15.48;86.37;97784.50;4977212;28;20453;-75
2021/07/27 02:00:08;;;;;;;7.20;6.60;;;16.30;98.50;;;15.43;86.60;97784.47;4972502;28;20607;-81
2021/07/27 02:02:35;;;;;;;7.77;6.47;;;16.20;99.10;;;15.48;85.92;97789.16;4979531;28;20488;-75
2021/07/27 02:05:02;;;;;;;7.80;7.00;;;16.20;99.80;;;15.47;86.40;97784.75;4972076;28;20494;-82
2021/07/27 02:07:29;;;;;;;8.27;7.57;;;16.20;99.40;;;15.49;85.79;97794.31;4975138;28;20537;-77
2021/07/27 02:10:03;;;;;;;10.40;7.10;;;16.30;99.10;;;15.46;85.78;97788.56;4979282;28;20434;-75
2021/07/27 02:12:39;;;;;;;8.50;6.83;;;16.30;99.00;;;15.47;85.77;97796.47;4967382;28;20560;-76
2021/07/27 02:15:21;;;;;;;10.13;6.17;;;16.30;98.80;;;15.54;85.84;97788.97;4978776;28;20458;-75
2021/07/27 02:17:48;;;;;;;7.10;6.50;;;16.30;99.20;;;15.65;85.47;97794.50;4973431;28;20509;-79
2021/07/27 02:20:16;;;;;;;6.80;6.20;;;16.40;98.40;;;15.69;85.23;97788.31;4975731;28;20444;-82
2021/07/27 02:22:43;;;;;;;9.63;6.30;;;16.50;97.60;;;15.80;84.59;97791.97;4959396;29;20530;-74
2021/07/27 02:25:13;;;;;;;7.40;6.70;;;16.60;97.20;;;15.83;84.98;97787.91;4961783;28;20469;-82
2021/07/27 02:27:40;;;;;;;8.30;6.50;;;16.60;96.90;;;15.83;84.69;97786.00;4973834;28;20466;-83
2021/07/27 02:30:08;;;;;;;7.53;6.40;;;16.60;96.30;;;15.80;84.71;97783.78;4978657;28;21265;-74
2021/07/27 02:32:36;;;;;;;9.40;6.60;;;16.60;96.10;;;15.71;84.85;97780.69;4970087;28;20704;-82
2021/07/27 02:35:06;;;;;;;6.20;5.70;;;16.60;96.10;;;15.68;84.87;97772.22;4973844;28;20478;-77
2021/07/27 02:37:33;;;;;;;7.60;6.80;;;16.50;96.60;;;15.60;85.21;97781.66;4978472;28;20469;-75
2021/07/27 02:40:01;;;;;;;7.10;6.50;;;16.40;96.60;;;15.52;85.58;97782.91;4972206;28;20478;-80
2021/07/27 02:42:29;;;;;;;7.53;6.80;;;16.40;97.10;;;15.48;85.64;97779.06;4975346;28;20450;-82
2021/07/27 02:44:56;;;;;;;6.33;5.80;;;16.30;97.80;;;15.56;85.80;97792.25;4955854;29;20522;-82
2021/07/27 02:47:24;;;;;;;9.23;6.30;;;16.30;98.40;;;15.58;85.36;97781.09;4977220;28;20442;-75
2021/07/27 02:49:51;;;;;;;7.30;6.70;;;16.30;98.10;;;15.50;85.33;97779.63;4976684;28;20469;-76
2021/07/27 02:52:18;;;;;;;8.03;6.47;;;16.30;97.80;;;15.39;85.81;97784.13;4975662;28;20450;-82
2021/07/27 02:54:45;;;;;;;6.90;6.33;;;16.20;97.70;;;15.36;85.80;97781.09;4975608;28;20526;-75
2021/07/27 02:57:12;;;;;;;9.33;6.73;;;16.20;98.20;;;15.25;85.98;97778.25;4974595;28;20521;-81
2021/07/27 02:59:40;;;;;;;8.23;7.50;;;16.10;98.70;;;15.19;86.38;97784.69;4973843;28;20560;-82
2021/07/27 03:02:07;;;;;;;7.87;7.10;;;16.10;99.20;;;15.13;86.35;97781.06;4972556;28;20462;-75
2021/07/27 03:04:34;;;;;;;7.07;6.47;;;16.00;99.40;;;15.20;87.09;97794.47;4972688;28;20529;-82
2021/07/27 03:07:03;;;;;;;8.20;6.90;;;15.90;99.90;;;15.17;86.61;97792.28;4971256;28;20474;-78
2021/07/27 03:09:34;;;;;;;9.60;7.13;;;15.90;99.90;;;15.20;87.29;97793.69;4978382;28;20454;-77
2021/07/27 03:12:04;;;;;;;9.30;7.03;;;16.00;99.90;;;15.21;86.43;97796.13;4978084;28;20476;-76
2021/07/27 03:14:31;;;;;;;8.50;7.10;;;16.00;99.90;;;15.20;86.74;97791.75;4969569;28;20438;-83
2021/07/27 03:16:59;;;;;;;7.13;6.47;;;16.00;99.90;;;15.25;86.81;97794.56;4976558;28;20442;-75
2021/07/27 03:19:26;;;;;;;9.37;7.90;;;16.00;99.90;;;15.17;86.31;97792.28;4975568;28;20477;-82
2021/07/27 03:21:53;;;;;;;8.23;7.30;;;16.00;99.90;;;15.21;86.50;97801.56;4970874;28;20497;-83
2021/07/27 03:24:20;;;;;;;10.97;7.37;;;16.00;99.90;;;15.29;87.02;97805.75;4974820;28;20439;-77
2021/07/27 03:26:48;;;;;;;7.33;6.73;;;16.00;99.90;;;15.37;85.82;97790.88;4977865;28;20466;-76
2021/07/27 03:29:15;;;;;;;8.20;7.40;;;16.20;99.50;;;15.30;86.56;97802.81;4971464;28;20463;-83
2021/07/27 03:31:41;;;;;;;7.97;7.17;;;16.10;99.20;;;15.26;86.19;97812.53;4971533;28;20517;-78
2021/07/27 03:34:10;;;;;;;8.87;7.33;;;16.10;99.40;;;15.39;86.02;97796.91;4968454;28;20473;-81
2021/07/27 03:36:37;;;;;;;7.80;7.10;;;16.10;99.90;;;15.24;86.08;97797.53;4973432;28;20501;-83
2021/07/27 03:39:04;;;;;;;14.67;8.60;;;16.10;98.90;;;15.16;85.99;97796.06;4977238;28;20465;-78
2021/07/27 03:41:31;;;;;;;9.37;8.47;;;16.00;98.90;;;15.12;86.81;97789.50;4975973;28;20473;-77
2021/07/27 03:43:57;;;;;;;8.27;7.43;;;16.00;99.90;;;15.30;86.53;97804.69;4974704;28;20481;-84
2021/07/27 03:46:24;;;;;;;8.63;7.90;;;16.00;99.90;;;15.27;86.18;97800.59;4970345;28;20446;-84
2021/07/27 03:48:51;;;;;;;10.77;8.70;;;16.10;99.70;;;15.20;86.70;97799.94;4973300;28;20496;-82
2021/07/27 03:51:19;;;;;;;8.10;7.40;;;16.00;99.30;;;15.05;86.61;97797.00;4972481;28;20434;-84
2021/07/27 03:53:46;;;;;;;9.10;8.20;;;16.00;99.20;;;15.18;87.04;97793.09;4976558;28;20538;-76
2021/07/27 03:56:13;;;;;;;8.83;7.97;;;16.00;99.90;;;15.39;85.70;97802.34;4973892;28;20490;-83
2021/07/27 03:58:43;;;;;;;8.20;7.40;;;16.10;99.20;;;15.26;86.10;97801.66;4974552;28;20438;-83
2021/07/27 04:01:11;;;;;;;8.53;7.37;;;16.20;98.50;;;15.40;85.79;97809.47;4978215;28;20475;-81
2021/07/27 04:03:38;;;;;;;9.00;8.10;;;16.20;98.50;;;15.48;85.43;97803.56;4981409;28;20469;-76
2021/07/27 04:06:05;;;;;;;10.00;7.80;;;16.20;98.50;;;15.61;84.39;97812.44;4979193;28;20442;-77
2021/07/27 04:08:33;;;;;;;9.27;7.20;;;16.60;96.40;;;15.81;83.80;97807.22;4978962;28;20524;-83
2021/07/27 04:11:04;;;;;;;8.07;6.70;;;17.10;93.20;;;16.04;82.79;97790.88;4978706;28;20477;-83
2021/07/27 04:13:33;;;;;;;10.07;6.90;;;17.60;90.60;;;16.48;81.20;97803.56;4978845;28;20476;-83
2021/07/27 04:16:01;;;;;;;10.33;7.00;;;18.20;87.50;;;16.84;80.16;97806.59;4978889;28;20457;-80
2021/07/27 04:18:28;;;;;;;7.23;6.40;;;18.70;85.00;;;17.09;78.86;97813.34;4981532;28;20448;-77
2021/07/27 04:20:58;;;;;;;7.40;6.70;;;19.00;82.90;;;17.36;77.44;97817.84;4977200;28;20422;-82
2021/07/27 04:23:25;;;;;;;7.33;6.50;;;19.30;80.60;;;17.64;76.33;97818.53;4978689;28;20501;-76
2021/07/27 04:25:53;;;;;;;8.90;5.90;;;19.60;78.50;;;17.66;76.17;97808.16;4980865;28;20434;-75
2021/07/27 04:28:20;;;;;;;7.30;6.60;;;19.80;77.10;;;17.83;75.38;97810.69;4979544;28;20505;-82
2021/07/27 04:30:48;;;;;;;7.40;6.60;;;19.90;76.50;;;18.09;74.86;97819.00;4978509;28;20453;-82
2021/07/27 04:33:17;;;;;;;13.43;6.23;;;20.10;75.50;;;18.27;74.01;97814.91;4960646;29;20446;-78
2021/07/27 04:35:44;;;;;;;9.63;6.27;;;20.40;73.80;;;18.57;72.96;97807.84;4976743;28;20474;-83
2021/07/27 04:38:11;;;;;;;6.13;5.40;;;20.70;72.50;;;18.95;71.51;97811.13;4974165;28;20458;-76
2021/07/27 04:40:37;;;;;;;6.63;6.03;;;21.30;70.80;;;19.10;70.79;97790.34;4980384;28;20446;-76
2021/07/27 04:43:06;;;;;;;8.43;6.60;;;21.80;68.80;;;19.42;70.00;97811.06;4975273;28;20430;-81
2021/07/27 04:45:33;;;;;;;7.37;6.20;;;22.10;67.60;;;19.77;68.66;97806.53;4977949;28;20518;-75
2021/07/27 04:48:00;;;;;;;6.40;5.80;;;22.50;66.30;;;19.90;68.16;97809.78;4978919;28;20481;-77
2021/07/27 04:50:27;;;;;;;7.00;6.40;;;22.70;65.30;;;20.32;66.93;97810.38;4977689;28;20458;-76
2021/07/27 04:53:00;;;;;;;6.60;6.00;;;23.20;64.20;;;20.45;65.61;97803.44;4978728;28;20466;-75
2021/07/27 04:55:27;;;;;;;6.87;5.27;;;23.50;63.00;;;20.97;64.32;97808.53;4978913;28;20459;-82
2021/07/27 04:57:54;;;;;;;6.57;5.97;;;24.00;62.40;;;21.17;63.74;97805.59;4977434;28;20521;-79
2021/07/27 05:00:25;;;;;;;7.17;6.47;;;24.30;61.40;;;21.38;63.19;97813.63;4974953;28;20549;-78
2021/07/27 05:02:52;;;;;;;6.53;5.80;;;24.70;60.70;;;21.26;63.30;97810.44;4979950;28;20434;-75
2021/07/27 05:05:20;;;;;;;8.40;5.77;;;24.70;60.10;;;21.26;63.53;97807.69;4978679;28;20521;-83
2021/07/27 05:07:47;;;;;;;6.67;6.00;;;24.20;60.40;;;20.84;64.78;97805.34;4979385;28;20533;-76
2021/07/27 05:10:15;;;;;;;7.10;6.40;;;23.50;61.30;;;20.69;64.72;97788.97;4976775;28;20481;-77
2021/07/27 05:12:42;;;;;;;7.70;6.50;;;23.60;61.30;;;21.20;64.07;97802.28;4976690;28;20510;-83
2021/07/27 05:15:09;;;;;;;9.13;5.73;;;24.10;60.90;;;20.89;63.95;97786.09;4979938;28;20449;-75
2021/07/27 05:17:38;;;;;;;6.90;6.20;;;24.40;60.10;;;21.52;63.00;97810.97;4980413;28;20458;-76
2021/07/27 05:20:07;;;;;;;6.53;6.00;;;24.80;59.70;;;21.56;62.01;97787.31;4977300;28;20517;-78
2021/07/27 05:22:35;;;;;;;7.47;6.60;;;25.10;59.00;;;21.64;62.18;97808.63;4976726;28;20457;-76
2021/07/27 05:25:02;;;;;;;8.70;5.80;;;25.10;58.70;;;21.90;61.36;97810.28;4978806;28;20446;-76
2021/07/27 05:27:32;;;;;;;9.50;6.40;;;25.40;58.60;;;21.93;60.58;97783.00;4979811;28;20441;-76
2021/07/27 05:29:59;;;;;;;8.30;6.00;;;25.50;58.40;;;22.16;60.58;97807.19;4975884;28;20476;-75
2021/07/27 05:32:27;;;;;;;6.50;5.90;;;25.60;58.00;;;22.16;60.53;97810.75;4979822;28;20456;-75
2021/07/27 05:34:55;;;;;;;6.60;5.90;;;25.80;57.80;;;22.38;60.16;97812.09;4977900;28;20465;-81
2021/07/27 05:37:22;;;;;;;7.30;5.90;;;26.10;57.50;;;22.36;59.81;97795.88;4974256;28;20438;-86
2021/07/27 05:39:50;;;;;;;8.20;5.70;;;26.10;57.30;;;22.52;59.68;97806.69;4979186;28;20426;-75
2021/07/27 05:42:17;;;;;;;10.53;5.67;;;26.00;57.30;;;22.31;60.15;97798.72;4975361;28;20473;-88
2021/07/27 05:44:44;;;;;;;9.07;7.10;;;25.90;57.30;;;22.32;60.41;97802.28;4973409;28;20449;-87
2021/07/27 05:47:11;;;;;;;8.60;6.77;;;25.70;57.60;;;22.20;60.25;97799.97;4972086;29;20522;-87
2021/07/27 05:49:39;;;;;;;9.33;7.03;;;25.80;57.40;;;22.07;60.96;97813.38;4974380;28;20549;-77
2021/07/27 05:52:11;;;;;;;7.80;7.10;;;25.40;57.60;;;22.13;60.48;97805.03;4972622;28;20442;-86
2021/07/27 05:54:38;;;;;;;7.10;6.40;;;25.40;57.70;;;21.99;61.26;97815.94;4971682;28;20431;-77
2021/07/27 05:57:05;;;;;;;7.63;6.83;;;25.30;58.00;;;22.15;60.94;97802.81;4967835;28;20458;-87
2021/07/27 05:59:32;;;;;;;9.37;6.37;;;25.10;58.30;;;21.95;61.12;97793.72;4976496;28;20453;-87
2021/07/27 06:01:59;;;;;;;8.23;6.33;;;24.90;58.30;;;21.87;61.56;97802.63;4972055;28;20513;-88
2021/07/27 06:04:26;;;;;;;8.00;6.00;;;24.70;58.40;;;21.53;62.98;97807.13;4977480;28;20473;-76
2021/07/27 06:06:53;;;;;;;7.80;6.47;;;24.40;58.80;;;21.78;62.05;97792.28;4975603;28;20502;-81
2021/07/27 06:09:21;;;;;;;9.97;6.77;;;24.40;59.30;;;22.02;61.69;97807.13;4969792;28;20498;-86
2021/07/27 06:11:48;;;;;;;6.80;5.80;;;24.50;59.30;;;22.12;61.09;97784.16;4973814;28;20548;-86
2021/07/27 06:14:15;;;;;;;7.67;6.03;;;24.60;59.30;;;22.40;60.77;97809.06;4973970;28;20500;-78
2021/07/27 06:16:43;;;;;;;7.57;5.90;;;24.60;59.30;;;22.21;60.83;97810.69;4964683;28;20458;-75
2021/07/27 06:19:10;;;;;;;7.80;6.53;;;24.70;59.10;;;22.05;60.63;97798.25;4963609;28;20446;-87
2021/07/27 06:21:39;;;;;;;9.73;7.00;;;24.50;59.20;;;22.06;61.37;97817.22;4974826;28;20545;-78
2021/07/27 06:24:06;;;;;;;7.50;6.10;;;24.10;59.60;;;21.94;61.90;97819.59;4973794;28;20525;-87
2021/07/27 06:26:35;;;;;;;8.60;6.67;;;23.60;60.30;;;21.67;62.84;97814.69;4981708;28;20438;-80
2021/07/27 06:29:04;;;;;;;7.53;6.67;;;23.20;61.40;;;21.16;64.07;97820.44;4975034;28;20535;-76
2021/07/27 06:31:31;;;;;;;9.20;7.03;;;22.60;62.20;;;21.09;64.55;97814.47;4971805;28;20426;-89
2021/07/27 06:33:58;;;;;;;14.13;6.57;;;22.30;62.70;;;20.93;64.41;97808.31;4968953;28;20469;-76
2021/07/27 06:36:27;;;;;;;8.70;7.83;;;22.10;62.90;;;20.93;65.04;97814.59;4978767;28;20453;-75
2021/07/27 06:38:54;;;;;;;11.40;7.37;;;22.10;63.50;;;20.97;64.89;97803.03;4975976;28;20517;-77
2021/07/27 06:41:22;;;;;;;7.67;6.97;;;22.00;63.70;;;21.06;64.78;97817.78;4961867;28;20501;-75
2021/07/27 06:43:50;;;;;;;7.73;7.00;;;22.00;63.80;;;21.43;63.88;97832.78;4977580;28;20457;-76
2021/07/27 06:46:17;;;;;;;10.43;7.40;;;22.30;63.80;;;21.81;62.50;97821.13;4977680;28;20478;-75
2021/07/27 06:48:44;;;;;;;7.97;7.03;;;22.60;63.40;;;21.85;62.24;97827.69;4995197;28;20468;-75
2021/07/27 06:51:13;;;;;;;8.67;7.70;;;23.00;62.70;;;21.64;62.86;97829.81;4979384;28;20748;-83
2021/07/27 06:53:41;;;;;;;7.50;6.50;;;23.00;62.50;;;21.71;62.52;97824.81;4977222;28;20557;-74
2021/07/27 06:56:09;;;;;;;7.73;7.03;;;23.00;62.80;;;21.79;62.50;97824.19;4977340;28;20545;-79
2021/07/27 06:58:38;;;;;;;8.23;7.10;;;23.00;62.60;;;21.68;62.84;97824.56;4978644;28;20461;-74
2021/07/27 07:01:09;;;;;;;7.47;6.77;;;23.00;62.90;;;21.62;63.22;97823.81;4978365;28;20442;-73
2021/07/27 07:03:38;;;;;;;9.93;6.57;;;22.90;62.70;;;21.52;63.24;97835.72;4977330;28;20482;-73
2021/07/27 07:06:05;;;;;;;8.60;6.83;;;22.70;62.60;;;21.59;62.88;97818.88;4958662;28;20442;-83
2021/07/27 07:08:32;;;;;;;9.00;6.53;;;22.80;63.00;;;21.66;63.75;97835.88;4965161;28;20498;-74
2021/07/27 07:11:01;;;;;;;7.53;6.60;;;22.70;63.50;;;21.78;63.89;97835.44;4964859;28;20466;-78
2021/07/27 07:13:28;;;;;;;10.60;7.03;;;22.80;63.90;;;21.87;62.71;97838.38;4976893;28;20517;-75
2021/07/27 07:15:56;;;;;;;7.53;6.67;;;22.80;63.50;;;21.69;63.52;97840.78;4976765;28;20442;-72
2021/07/27 07:18:25;;;;;;;6.87;6.23;;;22.80;63.60;;;21.63;63.81;97830.94;4975152;28;20560;-73
2021/07/27 07:20:53;;;;;;;12.43;6.10;;;22.80;63.80;;;21.85;63.05;97838.69;4978229;28;20487;-73
2021/07/27 07:23:20;;;;;;;10.47;6.53;;;22.80;63.70;;;21.91;62.61;97842.16;4972226;28;20474;-72
2021/07/27 07:25:50;;;;;;;14.47;6.13;;;22.90;63.50;;;22.02;62.43;97843.66;4975654;28;20459;-73
2021/07/27 07:28:19;;;;;;;6.57;6.00;;;23.00;63.40;;;21.96;62.44;97849.53;4977949;28;20442;-74
2021/07/27 07:30:47;;;;;;;8.50;6.30;;;22.90;63.30;;;22.06;62.54;97844.75;4971219;28;20458;-74
2021/07/27 07:33:15;;;;;;;6.90;6.20;;;23.00;63.60;;;21.92;63.03;97841.88;4977305;28;20474;-74
2021/07/27 07:35:43;;;;;;;7.33;6.10;;;22.80;63.90;;;21.87;62.94;97852.94;4974444;28;20457;-76
2021/07/27 07:38:10;;;;;;;8.27;5.53;;;22.70;63.90;;;22.01;62.97;97836.53;4970116;28;20525;-77
2021/07/27 07:40:37;;;;;;;7.67;5.60;;;22.70;64.40;;;22.12;62.41;97842.72;4975675;28;20455;-71
2021/07/27 07:43:04;;;;;;;6.73;6.13;;;22.90;64.00;;;22.20;61.94;97838.47;4974381;28;20451;-75
2021/07/27 07:45:32;;;;;;;5.53;4.90;;;23.00;63.80;;;22.21;61.58;97835.44;4972638;28;20466;-72
2021/07/27 07:47:59;;;;;;;6.13;5.30;;;23.20;63.30;;;22.53;59.22;97846.88;4977911;28;20438;-72
2021/07/27 07:50:29;;;;;;;6.00;5.43;;;23.30;62.00;;;22.51;58.12;97843.56;4970033;28;20489;-74
2021/07/27 07:53:01;;;;;;;5.97;5.37;;;23.50;61.10;;;22.71;58.50;97845.19;4973551;28;20446;-73
2021/07/27 07:55:28;;;;;;;6.80;6.10;;;23.60;61.10;;;23.17;58.58;97838.09;4975325;28;20438;-76
2021/07/27 07:57:56;;;;;;;6.03;5.43;;;24.00;61.90;;;23.10;58.63;97843.16;4967067;28;20482;-73
2021/07/27 08:00:24;;;;;;;7.17;5.67;;;24.10;61.60;;;23.21;57.80;97843.84;4967521;28;20522;-73
2021/07/27 08:02:51;;;;;;;6.00;5.30;;;24.20;61.20;;;23.40;57.70;97838.25;4974321;28;20481;-76
2021/07/27 08:05:19;;;;;;;6.30;5.70;;;24.30;61.30;;;23.62;56.44;97843.06;4977403;28;20454;-73
2021/07/27 08:07:46;;;;;;;7.40;5.83;;;24.50;60.70;;;23.99;54.82;97840.41;4976593;28;20461;-73
2021/07/27 08:10:16;;;;;;;6.63;6.00;;;24.70;60.20;;;24.05;54.74;97833.69;4977406;28;20496;-74
2021/07/27 08:12:46;;;;;;;5.60;5.10;;;24.90;59.90;;;24.59;53.38;97846.84;4970088;28;20525;-78
2021/07/27 08:15:14;;;;;;;5.90;5.33;;;25.20;59.60;;;24.62;53.10;97846.19;4977180;28;20506;-76
2021/07/27 08:17:41;;;;;;;7.13;5.10;;;25.50;59.00;;;24.71;52.72;97834.41;4977356;28;20438;-75
2021/07/27 08:20:10;;;;;;;5.90;5.40;;;25.70;58.50;;;24.72;52.96;97811.19;4975318;28;20510;-80
2021/07/27 08:22:39;;;;;;;6.23;5.63;;;25.80;58.70;;;25.09;51.82;97836.81;4960902;28;20462;-76
2021/07/27 08:25:07;;;;;;;8.70;6.20;;;25.90;58.40;;;25.16;50.73;97809.53;4977320;28;20430;-76
2021/07/27 08:27:36;;;;;;;6.13;5.60;;;25.90;57.80;;;24.92;52.27;97831.16;4970055;28;20633;-75
2021/07/27 08:30:03;;;;;;;5.77;5.27;;;25.60;58.10;;;24.87;52.29;97835.69;4971201;28;20446;-80
2021/07/27 08:32:30;;;;;;;6.73;5.80;;;25.70;58.20;;;24.91;51.54;97841.41;4970321;28;20485;-77
2021/07/27 08:34:57;;;;;;;6.00;5.40;;;25.80;57.80;;;25.45;50.88;97844.16;4976950;28;20492;-79
2021/07/27 08:37:27;;;;;;;8.70;6.10;;;26.10;57.80;;;25.48;50.50;97853.81;4952565;28;20178;-89
2021/07/27 08:39:58;;;;;;;6.43;5.60;;;26.40;57.40;;;25.04;50.89;97828.66;4971444;28;20439;-85
2021/07/27 08:42:29;;;;;;;6.13;5.53;;;26.30;57.00;;;25.61;50.17;97849.31;4975426;28;20430;-79
2021/07/27 08:44:59;;;;;;;6.13;5.63;;;26.40;57.20;;;25.53;50.26;97850.06;4972193;28;20458;-86
2021/07/27 08:47:26;;;;;;;9.97;5.70;;;26.40;57.10;;;25.64;49.52;97845.91;4972699;28;20526;-86
2021/07/27 08:49:55;;;;;;;6.30;5.70;;;26.60;56.80;;;26.00;49.05;97841.28;4974531;28;20460;-87
2021/07/27 08:52:22;;;;;;;5.90;5.50;;;26.90;56.40;;;25.68;49.04;97838.56;4977847;28;20448;-84
2021/07/27 08:54:50;;;;;;;6.67;5.47;;;26.70;56.10;;;25.63;49.32;97847.03;4974053;28;20461;-85
2021/07/27 08:57:18;;;;;;;6.33;5.83;;;26.70;56.20;;;25.88;48.95;97841.91;4976860;28;20468;-86
2021/07/27 08:59:45;;;;;;;7.27;5.60;;;26.70;56.00;;;25.82;48.55;97838.47;4975999;28;20481;-80
2021/07/27 09:02:14;;;;;;;10.30;5.03;;;26.50;55.90;;;25.21;50.07;97827.13;4979446;28;20462;-83
2021/07/27 09:04:41;;;;;;;5.57;5.07;;;26.40;56.20;;;25.46;49.29;97839.44;4977160;28;20537;-86
2021/07/27 09:07:08;;;;;;;6.43;4.90;;;26.50;56.10;;;24.96;50.27;97848.78;4958105;28;20482;-84
2021/07/27 09:09:36;;;;;;;5.33;4.90;;;26.10;56.00;;;24.37;52.15;97831.06;4971130;28;20480;-82
2021/07/27 09:12:09;;;;;;;7.17;5.13;;;25.60;56.70;;;24.95;51.61;97847.16;4944541;29;20443;-80
2021/07/27 09:14:42;;;;;;;7.63;5.97;;;25.60;57.30;;;25.51;50.38;97846.81;4976186;28;20433;-87
2021/07/27 09:17:12;;;;;;;6.90;5.50;;;26.20;56.80;;;26.33;48.20;97837.31;4969569;28;20457;-87
2021/07/27 09:19:42;;;;;;;7.33;6.00;;;26.90;56.30;;;26.03;49.18;97846.16;4970017;28;20489;-86
2021/07/27 09:22:09;;;;;;;7.10;6.40;;;27.00;56.00;;;26.05;49.61;97848.63;4976220;28;20465;-88
2021/07/27 09:24:37;;;;;;;7.67;6.10;;;27.10;56.30;;;25.89;49.99;97849.06;4967416;28;20458;-86
2021/07/27 09:27:08;;;;;;;6.03;5.53;;;27.00;56.30;;;25.85;50.11;97843.38;4971436;28;20455;-87
2021/07/27 09:29:45;;;;;;;5.30;4.90;;;26.80;56.50;;;25.93;49.28;97847.28;4979948;28;20454;-79
2021/07/27 09:32:20;;;;;;;6.97;5.90;;;26.80;56.40;;;26.00;49.41;97847.63;4974533;28;20437;-87
2021/07/27 09:34:48;;;;;;;6.80;6.10;;;26.90;56.40;;;26.09;49.71;97844.06;4973946;28;20443;-88
2021/07/27 09:37:17;;;;;;;6.90;6.30;;;27.00;56.30;;;26.25;48.52;97848.03;4975020;28;20207;-89
2021/07/27 09:39:46;;;;;;;8.10;6.07;;;27.20;55.90;;;25.93;49.73;97850.06;4976626;28;20518;-78
2021/07/27 09:42:15;;;;;;;6.90;5.90;;;27.10;56.00;;;26.63;48.37;97856.88;4976671;28;20489;-88
2021/07/27 09:44:44;;;;;;;6.60;6.10;;;27.40;55.90;;;26.19;48.93;97845.75;4974437;28;20605;-82
2021/07/27 09:47:12;;;;;;;7.13;6.43;;;27.30;55.70;;;26.77;47.42;97849.22;4971172;28;20475;-87
2021/07/27 09:49:41;;;;;;;9.57;6.03;;;27.20;55.60;;;27.09;47.41;97835.16;4977083;28;20457;-77
2021/07/27 09:52:08;;;;;;;6.00;5.50;;;27.80;55.70;;;26.43;46.22;97848.03;4977761;28;20592;-86
2021/07/27 09:54:40;;;;;;;6.97;5.17;;;27.60;54.00;;;26.53;45.47;97847.75;4972749;28;20483;-87
2021/07/27 09:57:07;;;;;;;6.73;5.27;;;27.30;53.70;;;26.06;45.11;97836.41;4949362;29;20465;-82
2021/07/27 09:59:36;;;;;;;5.20;4.80;;;27.20;53.10;;;25.80;45.35;97831.63;4943406;28;20447;-89
2021/07/27 10:02:06;;;;;;;5.30;4.80;;;26.90;52.80;;;25.72;45.58;97817.47;4958138;29;20454;-85
2021/07/27 10:04:38;;;;;;;5.07;4.40;;;26.50;53.50;;;26.80;44.32;97820.84;4982352;28;20226;-88
2021/07/27 10:07:07;;;;;;;5.70;5.20;;;27.20;53.70;;;26.73;44.58;97835.19;4975665;28;20468;-87
2021/07/27 10:09:35;;;;;;;4.87;4.47;;;27.60;53.40;;;26.63;44.34;97821.66;4977045;28;20495;-78
2021/07/27 10:12:06;;;;;;;5.90;5.30;;;27.70;53.10;;;26.12;45.35;97830.41;4975688;28;20453;-84
2021/07/27 10:14:44;;;;;;;5.73;4.23;;;27.30;52.90;;;26.38;45.36;97832.41;4954327;28;20201;-85
2021/07/27 10:17:13;;;;;;;6.00;5.50;;;27.30;53.10;;;26.61;45.51;97834.19;4972138;28;20453;-85
2021/07/27 10:19:47;;;;;;;5.20;4.77;;;27.40;53.70;;;27.09;44.76;97829.63;4978039;28;20461;-85
2021/07/27 10:22:16;;;;;;;5.93;5.30;;;27.80;53.60;;;27.26;45.18;97834.31;4971696;28;20509;-85
2021/07/27 10:24:46;;;;;;;5.97;5.47;;;28.00;53.60;;;27.25;44.33;97843.78;4957393;28;20505;-85
2021/07/27 10:27:19;;;;;;;7.80;5.63;;;28.00;53.10;;;27.47;44.20;97805.84;4970571;28;20449;-85
2021/07/27 10:29:47;;;;;;;5.30;4.80;;;28.20;53.60;;;27.45;44.37;97825.59;4957297;28;20461;-85
2021/07/27 10:32:16;;;;;;;5.33;4.93;;;28.30;53.40;;;27.81;43.27;97804.06;4947141;28;20446;-85
2021/07/27 10:34:45;;;;;;;9.73;7.80;;;28.50;53.00;;;27.82;43.06;97819.56;4975011;28;20445;-85
2021/07/27 10:37:14;;;;;;;6.60;5.70;;;28.60;52.80;;;27.82;42.57;97797.38;4968959;28;20493;-85
2021/07/27 10:39:53;;;;;;;8.50;6.00;;;28.80;52.60;;;28.44;41.83;97820.03;4954764;28;20450;-86